createdAt,value
2022-12-18T00:00:40.876Z,85.83
2022-12-18T00:06:03.795Z,86.40
2022-12-18T00:11:08.824Z,86.63
2022-12-18T00:16:13.277Z,86.13
2022-12-18T00:21:15.749Z,86.66
2022-12-18T00:26:20.710Z,86.25
2022-12-18T00:31:25.090Z,86.79
2022-12-18T00:36:29.356Z,86.38
2022-12-18T00:41:51.665Z,85.98
2022-12-18T00:46:53.586Z,86.39
2022-12-18T00:51:55.511Z,85.29
2022-12-18T00:56:58.839Z,86.38
2022-12-18T01:02:00.887Z,86.91
2022-12-18T01:07:02.936Z,86.26
2022-12-18T01:12:07.238Z,84.84
2022-12-18T01:17:09.145Z,85.55
2022-12-18T01:22:11.075Z,85.03
2022-12-18T01:27:14.423Z,84.38
2022-12-18T01:32:16.322Z,84.45
2022-12-18T01:37:18.222Z,84.50
2022-12-18T01:42:22.121Z,85.11
2022-12-18T01:47:27.434Z,85.54
2022-12-18T01:52:31.739Z,85.72
2022-12-18T01:57:35.952Z,85.17
2022-12-18T02:02:38.793Z,85.11
2022-12-18T02:07:50.444Z,84.85
2022-12-18T02:12:59.640Z,85.07
2022-12-18T02:18:07.508Z,85.95
2022-12-18T02:23:21.574Z,84.53
2022-12-18T02:28:29.400Z,86.20
2022-12-18T02:33:32.904Z,85.38
2022-12-18T02:38:36.041Z,86.63
2022-12-18T02:43:39.863Z,85.72
2022-12-18T02:48:42.114Z,85.72
2022-12-18T02:53:51.131Z,85.58
2022-12-18T02:58:59.724Z,85.85
2022-12-18T03:04:10.949Z,85.04
2022-12-18T03:09:15.770Z,84.64
2022-12-18T03:14:22.900Z,86.09
2022-12-18T03:19:29.274Z,86.04
2022-12-18T03:24:33.117Z,85.27
2022-12-18T03:29:39.274Z,83.63
2022-12-18T03:34:43.338Z,83.70
2022-12-18T03:39:45.310Z,84.64
2022-12-18T03:44:58.678Z,84.45
2022-12-18T03:50:12.872Z,84.44
2022-12-18T03:55:15.252Z,85.03
2022-12-18T04:00:20.053Z,83.97
2022-12-18T04:05:25.193Z,85.19
2022-12-18T04:10:27.320Z,82.91
2022-12-18T04:15:32.416Z,82.30
2022-12-18T04:20:34.370Z,84.01
2022-12-18T04:25:36.288Z,84.49
2022-12-18T04:30:39.612Z,83.70
2022-12-18T04:35:42.310Z,83.16
2022-12-18T04:40:44.346Z,84.23
2022-12-18T04:45:47.667Z,84.47
2022-12-18T04:50:49.569Z,84.66
2022-12-18T04:55:51.639Z,83.58
2022-12-18T05:00:54.922Z,84.69
2022-12-18T05:05:56.840Z,83.95
2022-12-18T05:11:02.685Z,83.36
2022-12-18T05:16:07.452Z,83.91
2022-12-18T05:21:09.485Z,84.07
2022-12-18T05:26:16.756Z,83.49
2022-12-18T05:31:20.094Z,83.49
2022-12-18T05:36:22.091Z,81.85
2022-12-18T05:41:24.032Z,82.85
2022-12-18T05:46:27.582Z,84.09
2022-12-18T05:51:29.655Z,84.04
2022-12-18T05:56:31.547Z,84.07
2022-12-18T06:01:34.893Z,84.90
2022-12-18T06:06:37.651Z,83.75
2022-12-18T06:11:40.034Z,84.87
2022-12-18T06:16:43.330Z,84.58
2022-12-18T06:21:45.332Z,85.52
2022-12-18T06:26:47.325Z,85.33
2022-12-18T06:31:50.684Z,85.15
2022-12-18T06:36:52.735Z,84.44
2022-12-18T06:41:54.772Z,83.87
2022-12-18T06:46:58.031Z,83.97
2022-12-18T06:52:00.181Z,83.27
2022-12-18T06:57:02.107Z,82.03
2022-12-18T07:02:05.755Z,81.95
2022-12-18T07:07:07.787Z,81.21
2022-12-18T07:12:09.680Z,80.34
2022-12-18T07:17:13.012Z,80.41
2022-12-18T07:22:14.934Z,78.80
2022-12-18T07:27:16.860Z,78.58
2022-12-18T07:32:20.117Z,78.07
2022-12-18T07:37:22.083Z,78.67
2022-12-18T07:42:33.067Z,78.03
2022-12-18T07:47:37.428Z,78.84
2022-12-18T07:52:39.430Z,76.94
2022-12-18T07:57:50.423Z,76.93
2022-12-18T08:02:54.403Z,76.58
2022-12-18T08:07:56.994Z,75.57
2022-12-18T08:13:04.714Z,75.52
2022-12-18T08:18:13.882Z,76.20
2022-12-18T08:23:16.259Z,75.93
2022-12-18T08:28:18.231Z,75.32
2022-12-18T08:33:21.633Z,75.82
2022-12-18T08:38:24.200Z,75.15
2022-12-18T08:43:45.978Z,75.64
2022-12-18T08:48:51.356Z,75.68
2022-12-18T08:53:53.268Z,75.33
2022-12-18T08:58:55.721Z,76.92
2022-12-18T09:03:59.043Z,76.45
2022-12-18T09:09:01.018Z,76.42
2022-12-18T09:14:03.840Z,76.24
2022-12-18T09:19:08.004Z,75.92
2022-12-18T09:24:13.427Z,76.78
2022-12-18T09:29:16.236Z,77.03
2022-12-18T09:34:22.823Z,77.13
2022-12-18T09:39:24.753Z,76.58
2022-12-18T09:44:29.791Z,75.47
2022-12-18T09:49:38.242Z,75.79
2022-12-18T09:54:41.797Z,75.36
2022-12-18T09:59:49.935Z,76.20
2022-12-18T10:05:04.196Z,75.29
2022-12-18T10:10:15.488Z,77.30
2022-12-18T10:15:25.478Z,77.92
2022-12-18T10:20:35.280Z,75.57
2022-12-18T10:25:44.693Z,77.32
2022-12-18T10:30:47.020Z,76.52
2022-12-18T10:35:51.975Z,75.87
2022-12-18T10:40:55.973Z,75.24
2022-12-18T10:46:12.780Z,74.64
2022-12-18T10:51:23.430Z,75.24
2022-12-18T10:56:28.301Z,78.25
2022-12-18T11:01:45.862Z,76.10
2022-12-18T11:06:56.861Z,78.24
2022-12-18T11:12:00.786Z,77.66
2022-12-18T11:17:25.259Z,77.79
2022-12-18T11:22:29.129Z,77.44
2022-12-18T11:27:31.292Z,78.23
2022-12-18T11:32:36.599Z,78.35
2022-12-18T11:37:42.661Z,77.84
2022-12-18T11:42:51.381Z,79.12
2022-12-18T11:47:58.772Z,78.42
2022-12-18T11:53:06.177Z,77.19
2022-12-18T11:58:18.156Z,76.95
2022-12-18T12:03:31.261Z,77.96
2022-12-18T12:08:46.454Z,78.92
2022-12-18T12:14:00.442Z,78.13
2022-12-18T12:19:16.573Z,79.33
2022-12-18T12:24:34.974Z,79.14
2022-12-18T12:29:48.646Z,78.78
2022-12-18T12:35:09.430Z,80.00
2022-12-18T12:40:49.293Z,80.33
2022-12-18T12:45:46.438Z,79.89
2022-12-18T12:50:49.579Z,78.58
2022-12-18T12:55:54.366Z,81.33
2022-12-18T13:01:05.782Z,80.00
2022-12-18T13:06:15.135Z,81.05
2022-12-18T13:11:52.577Z,80.94
2022-12-18T13:17:26.142Z,80.87
2022-12-18T13:22:34.212Z,81.00
2022-12-18T13:28:02.342Z,82.23
2022-12-18T13:34:24.619Z,82.24
2022-12-18T13:39:28.930Z,82.56
2022-12-18T13:44:40.879Z,82.87
2022-12-18T13:49:45.178Z,81.59
2022-12-18T13:54:51.498Z,84.30
2022-12-18T13:59:56.333Z,83.10
2022-12-18T14:04:58.271Z,85.13
2022-12-18T14:10:41.205Z,84.09
2022-12-18T14:15:34.715Z,85.27
2022-12-18T14:20:41.595Z,86.03
2022-12-18T14:25:47.026Z,85.98
2022-12-18T14:30:50.821Z,85.68
2022-12-18T14:35:56.959Z,84.92
2022-12-18T14:41:00.920Z,85.46
2022-12-18T14:46:06.692Z,87.49
2022-12-18T14:51:17.930Z,85.69
2022-12-18T14:56:22.187Z,86.57
2022-12-18T15:01:29.735Z,86.28
2022-12-18T15:06:34.198Z,87.49
2022-12-18T15:11:46.941Z,87.98
2022-12-18T15:16:53.882Z,88.25
2022-12-18T15:21:56.719Z,87.70
2022-12-18T15:27:00.467Z,87.26
2022-12-18T15:32:16.797Z,87.77
2022-12-18T15:37:19.274Z,88.00
2022-12-18T15:42:45.037Z,86.62
2022-12-18T15:47:50.236Z,87.79
2022-12-18T15:52:56.187Z,88.31
2022-12-18T15:57:58.330Z,87.56
2022-12-18T16:03:01.848Z,87.73
2022-12-18T16:08:04.767Z,87.11
2022-12-18T16:13:07.348Z,86.99
2022-12-18T16:18:10.666Z,88.17
2022-12-18T16:23:12.773Z,88.68
2022-12-18T16:28:15.111Z,88.26
2022-12-18T16:33:18.686Z,88.05
2022-12-18T16:38:20.836Z,87.46
2022-12-18T16:43:22.834Z,88.27
2022-12-18T16:48:26.713Z,88.82
2022-12-18T16:53:30.130Z,88.89
2022-12-18T16:58:32.283Z,87.40
2022-12-18T17:03:35.813Z,86.84
2022-12-18T17:08:37.862Z,86.49
2022-12-18T17:13:40.416Z,87.85
2022-12-18T17:18:43.968Z,88.87
2022-12-18T17:23:46.060Z,87.89
2022-12-18T17:28:48.140Z,88.23
2022-12-18T17:33:52.583Z,89.43
2022-12-18T17:38:57.361Z,87.84
2022-12-18T17:44:00.767Z,88.27
2022-12-18T17:49:04.517Z,88.05
2022-12-18T17:54:06.574Z,87.92
2022-12-18T17:59:09.257Z,88.63
2022-12-18T18:04:13.052Z,89.29
2022-12-18T18:09:16.955Z,87.77
2022-12-18T18:14:20.770Z,87.47
2022-12-18T18:19:24.912Z,88.42
2022-12-18T18:24:26.877Z,89.51
2022-12-18T18:29:32.580Z,88.97
2022-12-18T18:34:36.259Z,88.25
2022-12-18T18:39:38.527Z,89.13
2022-12-18T18:44:43.329Z,88.00
2022-12-18T18:49:51.631Z,87.55
2022-12-18T18:55:12.238Z,89.07
2022-12-18T19:00:16.750Z,89.75
2022-12-18T19:05:20.365Z,89.14
2022-12-18T19:10:22.353Z,88.66
2022-12-18T19:15:24.353Z,88.61
2022-12-18T19:20:28.366Z,90.01
2022-12-18T19:25:40.621Z,89.24
2022-12-18T19:30:43.956Z,89.45
2022-12-18T19:35:47.585Z,88.38
2022-12-18T19:40:49.678Z,88.02
2022-12-18T19:45:54.609Z,87.80
2022-12-18T19:50:58.081Z,89.76
2022-12-18T19:56:05.502Z,89.58
2022-12-18T20:01:07.976Z,88.28
2022-12-18T20:06:15.445Z,87.33
2022-12-18T20:11:17.427Z,87.34
2022-12-18T20:16:19.398Z,87.97
2022-12-18T20:21:23.737Z,88.55
2022-12-18T20:26:26.080Z,90.60
2022-12-18T20:31:28.278Z,89.42
2022-12-18T20:36:32.884Z,89.31
2022-12-18T20:41:38.341Z,89.83
2022-12-18T20:46:40.998Z,88.95
2022-12-18T20:51:44.357Z,89.51
2022-12-18T20:56:46.388Z,89.17
2022-12-18T21:01:49.448Z,88.83
2022-12-18T21:07:00.785Z,87.94
2022-12-18T21:12:23.743Z,88.02
2022-12-18T21:17:26.724Z,88.71
2022-12-18T21:22:31.727Z,88.10
2022-12-18T21:27:34.038Z,88.64
2022-12-18T21:32:35.998Z,88.47
2022-12-18T21:37:39.350Z,88.41
2022-12-18T21:43:00.732Z,88.75
2022-12-18T21:48:02.892Z,88.16
2022-12-18T21:53:06.176Z,87.88
2022-12-18T21:58:08.119Z,87.97
2022-12-18T22:03:18.474Z,87.48
2022-12-18T22:08:22.572Z,88.21
2022-12-18T22:13:24.712Z,88.17
2022-12-18T22:18:27.411Z,88.86
2022-12-18T22:23:30.824Z,88.34
2022-12-18T22:28:51.504Z,88.60
2022-12-18T22:33:53.418Z,88.53
2022-12-18T22:38:56.680Z,88.16
2022-12-18T22:43:58.601Z,88.67
2022-12-18T22:49:00.767Z,88.82
2022-12-18T22:54:04.390Z,88.35
2022-12-18T22:59:09.035Z,88.05
2022-12-18T23:04:11.535Z,88.51
2022-12-18T23:09:16.657Z,89.29
2022-12-18T23:14:18.714Z,88.25
2022-12-18T23:19:21.134Z,87.72
2022-12-18T23:24:26.955Z,89.02
2022-12-18T23:29:28.912Z,89.18
2022-12-18T23:34:30.967Z,88.13
2022-12-18T23:39:34.237Z,88.11
2022-12-18T23:44:36.134Z,88.13
2022-12-18T23:49:38.039Z,87.68
2022-12-18T23:54:42.105Z,86.80
2022-12-18T23:59:44.050Z,87.93
